sensor_id;sensor_type;location;lat;lon;timestamp;pressure;altitude;pressure_sealevel;temperature;humidity
62789;BME280;66401;42.016;21.454;2023-03-19T00:00:04;98843.47;;;7.02;48.82
62789;BME280;66401;42.016;21.454;2023-03-19T00:02:34;98828.25;;;6.99;48.15
62789;BME280;66401;42.016;21.454;2023-03-19T00:05:00;98834.03;;;6.93;48.46
62789;BME280;66401;42.016;21.454;2023-03-19T00:07:25;98830.91;;;6.81;48.61
62789;BME280;66401;42.016;21.454;2023-03-19T00:09:51;98813.91;;;6.78;48.25
62789;BME280;66401;42.016;21.454;2023-03-19T00:12:17;98833.44;;;6.73;49.18
62789;BME280;66401;42.016;21.454;2023-03-19T00:14:42;98831.00;;;6.71;48.50
62789;BME280;66401;42.016;21.454;2023-03-19T00:17:08;98817.19;;;6.63;48.19
62789;BME280;66401;42.016;21.454;2023-03-19T00:19:34;98830.69;;;6.66;48.90
62789;BME280;66401;42.016;21.454;2023-03-19T00:21:59;98828.25;;;6.73;48.77
62789;BME280;66401;42.016;21.454;2023-03-19T00:24:25;98800.66;;;6.55;48.90
62789;BME280;66401;42.016;21.454;2023-03-19T00:26:50;98827.66;;;6.79;48.05
62789;BME280;66401;42.016;21.454;2023-03-19T00:29:16;98826.66;;;6.72;48.03
62789;BME280;66401;42.016;21.454;2023-03-19T00:31:42;98823.91;;;6.73;48.63
62789;BME280;66401;42.016;21.454;2023-03-19T00:34:07;98815.28;;;6.65;48.68
62789;BME280;66401;42.016;21.454;2023-03-19T00:36:46;98833.75;;;6.70;49.04
62789;BME280;66401;42.016;21.454;2023-03-19T00:39:12;98829.88;;;6.74;48.24
62789;BME280;66401;42.016;21.454;2023-03-19T00:41:38;98811.44;;;6.69;48.66
62789;BME280;66401;42.016;21.454;2023-03-19T00:44:03;98823.03;;;6.65;48.61
62789;BME280;66401;42.016;21.454;2023-03-19T00:46:36;98822.75;;;6.68;47.66
62789;BME280;66401;42.016;21.454;2023-03-19T00:49:01;98823.72;;;6.67;48.56
62789;BME280;66401;42.016;21.454;2023-03-19T00:51:27;98813.31;;;6.58;49.05
62789;BME280;66401;42.016;21.454;2023-03-19T00:53:52;98825.53;;;6.74;48.27
62789;BME280;66401;42.016;21.454;2023-03-19T00:56:18;98824.81;;;6.64;48.26
62789;BME280;66401;42.016;21.454;2023-03-19T00:58:44;98819.75;;;6.54;48.69
62789;BME280;66401;42.016;21.454;2023-03-19T01:01:12;98828.22;;;6.65;48.99
62789;BME280;66401;42.016;21.454;2023-03-19T01:03:38;98826.66;;;6.72;48.47
62789;BME280;66401;42.016;21.454;2023-03-19T01:06:04;98815.75;;;6.60;47.98
62789;BME280;66401;42.016;21.454;2023-03-19T01:08:30;98819.78;;;6.63;48.19
62789;BME280;66401;42.016;21.454;2023-03-19T01:11:02;98818.50;;;6.58;49.05
62789;BME280;66401;42.016;21.454;2023-03-19T01:13:28;98812.22;;;6.43;48.23
62789;BME280;66401;42.016;21.454;2023-03-19T01:15:53;98815.19;;;6.48;47.77
62789;BME280;66401;42.016;21.454;2023-03-19T01:18:19;98824.19;;;6.44;48.70
62789;BME280;66401;42.016;21.454;2023-03-19T01:20:44;98814.66;;;6.45;47.89
62789;BME280;66401;42.016;21.454;2023-03-19T01:23:10;98810.22;;;6.29;48.48
62789;BME280;66401;42.016;21.454;2023-03-19T01:25:38;98809.41;;;6.28;49.11
62789;BME280;66401;42.016;21.454;2023-03-19T01:28:03;98817.09;;;6.46;48.61
62789;BME280;66401;42.016;21.454;2023-03-19T01:30:29;98812.69;;;6.39;47.40
62789;BME280;66401;42.016;21.454;2023-03-19T01:32:55;98807.16;;;6.34;47.35
62789;BME280;66401;42.016;21.454;2023-03-19T01:35:20;98819.22;;;6.25;47.56
62789;BME280;66401;42.016;21.454;2023-03-19T01:37:46;98823.16;;;6.29;47.80
62789;BME280;66401;42.016;21.454;2023-03-19T01:40:13;98815.63;;;6.18;48.22
62789;BME280;66401;42.016;21.454;2023-03-19T01:45:36;98814.09;;;6.33;47.69
62789;BME280;66401;42.016;21.454;2023-03-19T01:48:03;98810.22;;;6.29;47.31
62789;BME280;66401;42.016;21.454;2023-03-19T01:50:43;98810.50;;;6.26;48.62
62789;BME280;66401;42.016;21.454;2023-03-19T01:53:11;98812.72;;;6.21;48.43
62789;BME280;66401;42.016;21.454;2023-03-19T01:55:38;98798.34;;;6.18;47.40
62789;BME280;66401;42.016;21.454;2023-03-19T01:58:05;98814.94;;;6.16;47.86
62789;BME280;66401;42.016;21.454;2023-03-19T02:00:33;98810.16;;;6.21;47.33
62789;BME280;66401;42.016;21.454;2023-03-19T02:03:00;98819.03;;;6.00;49.17
62789;BME280;66401;42.016;21.454;2023-03-19T02:05:26;98814.97;;;5.98;48.39
62789;BME280;66401;42.016;21.454;2023-03-19T02:07:55;98814.19;;;5.88;49.53
62789;BME280;66401;42.016;21.454;2023-03-19T02:10:22;98813.25;;;5.89;48.97
62789;BME280;66401;42.016;21.454;2023-03-19T02:12:48;98814.44;;;5.94;49.23
62789;BME280;66401;42.016;21.454;2023-03-19T02:15:14;98814.16;;;5.80;49.74
62789;BME280;66401;42.016;21.454;2023-03-19T02:17:41;98817.91;;;5.85;49.25
62789;BME280;66401;42.016;21.454;2023-03-19T02:22:57;98823.38;;;5.82;50.04
62789;BME280;66401;42.016;21.454;2023-03-19T02:28:14;98813.34;;;5.79;49.24
62789;BME280;66401;42.016;21.454;2023-03-19T02:30:42;98822.72;;;5.80;50.36
62789;BME280;66401;42.016;21.454;2023-03-19T02:33:12;98807.09;;;5.54;51.25
62789;BME280;66401;42.016;21.454;2023-03-19T02:35:39;98832.97;;;5.72;50.18
62789;BME280;66401;42.016;21.454;2023-03-19T02:38:05;98837.97;;;5.73;52.05
62789;BME280;66401;42.016;21.454;2023-03-19T02:40:35;98820.53;;;5.58;51.06
62789;BME280;66401;42.016;21.454;2023-03-19T02:43:03;98832.66;;;5.75;50.08
62789;BME280;66401;42.016;21.454;2023-03-19T02:45:29;98834.81;;;5.80;49.92
62789;BME280;66401;42.016;21.454;2023-03-19T02:47:56;98828.75;;;5.71;50.93
62789;BME280;66401;42.016;21.454;2023-03-19T02:50:22;98834.88;;;5.70;50.65
62789;BME280;66401;42.016;21.454;2023-03-19T02:52:48;98827.56;;;5.65;50.99
62789;BME280;66401;42.016;21.454;2023-03-19T02:55:13;98829.72;;;5.70;50.95
62789;BME280;66401;42.016;21.454;2023-03-19T02:57:39;98834.34;;;5.66;51.02
62789;BME280;66401;42.016;21.454;2023-03-19T03:00:06;98820.44;;;5.50;51.46
62789;BME280;66401;42.016;21.454;2023-03-19T03:02:32;98833.31;;;5.59;51.00
62789;BME280;66401;42.016;21.454;2023-03-19T03:04:58;98826.31;;;5.52;50.81
62789;BME280;66401;42.016;21.454;2023-03-19T03:07:23;98828.50;;;5.46;50.28
62789;BME280;66401;42.016;21.454;2023-03-19T03:09:48;98833.66;;;5.46;51.50
62789;BME280;66401;42.016;21.454;2023-03-19T03:12:14;98831.28;;;5.35;51.16
62789;BME280;66401;42.016;21.454;2023-03-19T03:14:40;98821.25;;;5.32;51.43
62789;BME280;66401;42.016;21.454;2023-03-19T03:17:06;98831.94;;;5.37;52.16
62789;BME280;66401;42.016;21.454;2023-03-19T03:19:33;98827.50;;;5.30;51.77
62789;BME280;66401;42.016;21.454;2023-03-19T03:21:59;98829.66;;;5.34;51.73
62789;BME280;66401;42.016;21.454;2023-03-19T03:24:25;98826.41;;;5.32;52.39
62789;BME280;66401;42.016;21.454;2023-03-19T03:26:52;98831.59;;;5.32;51.38
62789;BME280;66401;42.016;21.454;2023-03-19T03:29:18;98817.25;;;5.10;53.29
62789;BME280;66401;42.016;21.454;2023-03-19T03:31:43;98832.72;;;5.20;53.18
62789;BME280;66401;42.016;21.454;2023-03-19T03:34:09;98841.41;;;5.19;52.30
62789;BME280;66401;42.016;21.454;2023-03-19T03:36:34;98828.22;;;4.95;53.08
62789;BME280;66401;42.016;21.454;2023-03-19T03:39:01;98836.03;;;5.12;52.69
62789;BME280;66401;42.016;21.454;2023-03-19T03:41:26;98830.13;;;5.20;52.80
62789;BME280;66401;42.016;21.454;2023-03-19T03:43:52;98829.19;;;5.21;53.27
62789;BME280;66401;42.016;21.454;2023-03-19T03:46:18;98835.41;;;5.28;51.47
62789;BME280;66401;42.016;21.454;2023-03-19T03:48:43;98836.88;;;5.03;52.85
62789;BME280;66401;42.016;21.454;2023-03-19T03:51:09;98842.06;;;5.03;53.54
62789;BME280;66401;42.016;21.454;2023-03-19T03:53:34;98836.03;;;5.12;52.35
62789;BME280;66401;42.016;21.454;2023-03-19T03:56:00;98847.69;;;5.16;52.84
62789;BME280;66401;42.016;21.454;2023-03-19T03:58:26;98844.69;;;5.21;52.06
62789;BME280;66401;42.016;21.454;2023-03-19T04:00:52;98846.97;;;5.24;53.27
62789;BME280;66401;42.016;21.454;2023-03-19T04:03:19;98850.22;;;5.26;52.35
62789;BME280;66401;42.016;21.454;2023-03-19T04:05:44;98847.28;;;5.21;52.50
62789;BME280;66401;42.016;21.454;2023-03-19T04:08:10;98844.09;;;5.00;52.94
62789;BME280;66401;42.016;21.454;2023-03-19T04:10:39;98855.06;;;5.02;52.83
62789;BME280;66401;42.016;21.454;2023-03-19T04:13:07;98850.31;;;5.07;53.52
62789;BME280;66401;42.016;21.454;2023-03-19T04:15:32;98851.28;;;5.06;53.18
62789;BME280;66401;42.016;21.454;2023-03-19T04:17:58;98852.38;;;5.03;52.91
62789;BME280;66401;42.016;21.454;2023-03-19T04:20:23;98852.16;;;4.87;54.20
62789;BME280;66401;42.016;21.454;2023-03-19T04:22:49;98852.13;;;4.97;53.50
62789;BME280;66401;42.016;21.454;2023-03-19T04:25:15;98860.31;;;4.82;54.86
62789;BME280;66401;42.016;21.454;2023-03-19T04:27:41;98858.44;;;4.75;54.83
62789;BME280;66401;42.016;21.454;2023-03-19T04:30:07;98853.13;;;4.76;53.82
62789;BME280;66401;42.016;21.454;2023-03-19T04:32:34;98863.84;;;4.81;54.16
62789;BME280;66401;42.016;21.454;2023-03-19T04:35:00;98859.53;;;4.72;53.99
62789;BME280;66401;42.016;21.454;2023-03-19T04:37:25;98861.16;;;4.73;54.76
62789;BME280;66401;42.016;21.454;2023-03-19T04:39:51;98866.19;;;4.75;54.76
62789;BME280;66401;42.016;21.454;2023-03-19T04:42:19;98874.06;;;4.73;54.03
62789;BME280;66401;42.016;21.454;2023-03-19T04:44:44;98873.53;;;4.70;54.42
62789;BME280;66401;42.016;21.454;2023-03-19T04:47:10;98873.81;;;4.57;54.52
62789;BME280;66401;42.016;21.454;2023-03-19T04:49:36;98866.75;;;4.59;55.21
62789;BME280;66401;42.016;21.454;2023-03-19T04:52:02;98879.50;;;4.70;55.20
62789;BME280;66401;42.016;21.454;2023-03-19T04:54:28;98881.06;;;4.91;53.94
62789;BME280;66401;42.016;21.454;2023-03-19T04:56:53;98875.97;;;4.71;54.12
62789;BME280;66401;42.016;21.454;2023-03-19T04:59:19;98870.94;;;4.70;54.72
62789;BME280;66401;42.016;21.454;2023-03-19T05:01:45;98874.63;;;4.67;56.21
62789;BME280;66401;42.016;21.454;2023-03-19T05:04:10;98871.63;;;4.62;54.51
62789;BME280;66401;42.016;21.454;2023-03-19T05:06:36;98881.00;;;4.63;55.58
62789;BME280;66401;42.016;21.454;2023-03-19T05:09:03;98889.16;;;4.68;54.95
62789;BME280;66401;42.016;21.454;2023-03-19T05:11:29;98878.13;;;4.76;55.50
62789;BME280;66401;42.016;21.454;2023-03-19T05:13:55;98888.97;;;4.79;55.27
62789;BME280;66401;42.016;21.454;2023-03-19T05:16:20;98882.31;;;4.86;54.84
62789;BME280;66401;42.016;21.454;2023-03-19T05:18:46;98878.91;;;4.96;53.69
62789;BME280;66401;42.016;21.454;2023-03-19T05:21:13;98875.50;;;4.95;53.76
62789;BME280;66401;42.016;21.454;2023-03-19T05:23:40;98874.09;;;5.01;52.90
62789;BME280;66401;42.016;21.454;2023-03-19T05:26:06;98884.03;;;5.05;53.70
62789;BME280;66401;42.016;21.454;2023-03-19T05:28:33;98877.75;;;5.08;53.91
62789;BME280;66401;42.016;21.454;2023-03-19T05:30:59;98884.63;;;5.27;51.87
62789;BME280;66401;42.016;21.454;2023-03-19T05:33:24;98891.94;;;5.31;52.59
62789;BME280;66401;42.016;21.454;2023-03-19T05:35:51;98890.75;;;5.26;52.36
62789;BME280;66401;42.016;21.454;2023-03-19T05:38:17;98896.81;;;5.34;52.39
62789;BME280;66401;42.016;21.454;2023-03-19T05:40:43;98895.50;;;5.21;53.28
62789;BME280;66401;42.016;21.454;2023-03-19T05:43:09;98896.06;;;5.24;53.99
62789;BME280;66401;42.016;21.454;2023-03-19T05:45:35;98894.66;;;5.30;53.60
62789;BME280;66401;42.016;21.454;2023-03-19T05:48:02;98890.88;;;5.24;53.34
62789;BME280;66401;42.016;21.454;2023-03-19T05:50:29;98895.50;;;5.21;53.34
62789;BME280;66401;42.016;21.454;2023-03-19T05:52:56;98897.59;;;5.07;52.44
62789;BME280;66401;42.016;21.454;2023-03-19T05:55:22;98895.72;;;5.00;54.13
62789;BME280;66401;42.016;21.454;2023-03-19T05:57:48;98899.03;;;4.82;54.91
62789;BME280;66401;42.016;21.454;2023-03-19T06:00:14;98899.84;;;4.93;54.06
62789;BME280;66401;42.016;21.454;2023-03-19T06:02:41;98905.88;;;5.11;53.45
62789;BME280;66401;42.016;21.454;2023-03-19T06:05:07;98899.06;;;5.10;53.53
62789;BME280;66401;42.016;21.454;2023-03-19T06:07:33;98905.09;;;5.01;53.43
62789;BME280;66401;42.016;21.454;2023-03-19T06:09:59;98903.97;;;5.13;54.51
62789;BME280;66401;42.016;21.454;2023-03-19T06:12:24;98908.66;;;4.90;54.18
62789;BME280;66401;42.016;21.454;2023-03-19T06:14:50;98902.41;;;4.93;54.02
62789;BME280;66401;42.016;21.454;2023-03-19T06:17:16;98908.25;;;4.95;54.23
62789;BME280;66401;42.016;21.454;2023-03-19T06:19:41;98905.66;;;4.95;54.83
62789;BME280;66401;42.016;21.454;2023-03-19T06:22:07;98911.84;;;5.11;55.55
62789;BME280;66401;42.016;21.454;2023-03-19T06:24:33;98911.66;;;5.32;55.06
62789;BME280;66401;42.016;21.454;2023-03-19T06:26:58;98919.09;;;5.35;54.86
62789;BME280;66401;42.016;21.454;2023-03-19T06:29:24;98910.91;;;5.40;54.20
62789;BME280;66401;42.016;21.454;2023-03-19T06:31:50;98916.34;;;5.46;54.08
62789;BME280;66401;42.016;21.454;2023-03-19T06:34:16;98915.38;;;5.47;55.34
62789;BME280;66401;42.016;21.454;2023-03-19T06:36:42;98914.72;;;5.45;54.66
62789;BME280;66401;42.016;21.454;2023-03-19T06:39:08;98912.44;;;5.42;55.80
62789;BME280;66401;42.016;21.454;2023-03-19T06:41:34;98907.56;;;5.30;55.31
62789;BME280;66401;42.016;21.454;2023-03-19T06:44:00;98924.47;;;5.52;55.13
62789;BME280;66401;42.016;21.454;2023-03-19T06:46:25;98925.91;;;5.64;56.90
62789;BME280;66401;42.016;21.454;2023-03-19T06:48:51;98939.53;;;5.93;54.87
62789;BME280;66401;42.016;21.454;2023-03-19T06:51:16;98936.38;;;5.99;53.06
62789;BME280;66401;42.016;21.454;2023-03-19T06:53:42;98923.44;;;5.99;52.79
62789;BME280;66401;42.016;21.454;2023-03-19T06:56:07;98935.69;;;6.15;53.65
62789;BME280;66401;42.016;21.454;2023-03-19T06:58:33;98915.88;;;6.24;54.12
62789;BME280;66401;42.016;21.454;2023-03-19T07:01:00;98933.03;;;6.43;53.26
62789;BME280;66401;42.016;21.454;2023-03-19T07:03:26;98934.56;;;6.53;52.83
62789;BME280;66401;42.016;21.454;2023-03-19T07:05:51;98940.84;;;6.69;53.27
62789;BME280;66401;42.016;21.454;2023-03-19T07:08:18;98947.97;;;6.67;52.57
62789;BME280;66401;42.016;21.454;2023-03-19T07:10:44;98936.09;;;6.82;52.05
62789;BME280;66401;42.016;21.454;2023-03-19T07:13:09;98930.00;;;6.91;52.04
62789;BME280;66401;42.016;21.454;2023-03-19T07:15:35;98932.34;;;7.02;51.52
62789;BME280;66401;42.016;21.454;2023-03-19T07:18:01;98937.13;;;6.89;51.50
62789;BME280;66401;42.016;21.454;2023-03-19T07:20:27;98931.34;;;6.95;52.43
62789;BME280;66401;42.016;21.454;2023-03-19T07:22:53;98928.06;;;6.93;52.24
62789;BME280;66401;42.016;21.454;2023-03-19T07:25:19;98930.09;;;6.81;52.28
62789;BME280;66401;42.016;21.454;2023-03-19T07:27:45;98936.31;;;7.14;51.97
62789;BME280;66401;42.016;21.454;2023-03-19T07:30:11;98938.78;;;7.58;49.89
62789;BME280;66401;42.016;21.454;2023-03-19T07:32:38;98929.94;;;8.44;48.18
62789;BME280;66401;42.016;21.454;2023-03-19T07:35:05;98930.94;;;9.78;45.25
62789;BME280;66401;42.016;21.454;2023-03-19T07:37:31;98929.63;;;10.97;41.98
62789;BME280;66401;42.016;21.454;2023-03-19T07:39:57;98926.41;;;12.04;39.02
62789;BME280;66401;42.016;21.454;2023-03-19T07:42:22;98927.50;;;12.31;38.28
62789;BME280;66401;42.016;21.454;2023-03-19T07:44:49;98926.78;;;12.44;37.98
62789;BME280;66401;42.016;21.454;2023-03-19T07:47:14;98934.03;;;12.42;37.40
62789;BME280;66401;42.016;21.454;2023-03-19T07:49:40;98920.31;;;13.17;35.81
62789;BME280;66401;42.016;21.454;2023-03-19T07:52:06;98940.41;;;14.80;33.73
62789;BME280;66401;42.016;21.454;2023-03-19T07:54:31;98941.28;;;16.10;32.42
62789;BME280;66401;42.016;21.454;2023-03-19T07:56:57;98940.56;;;15.90;30.54
62789;BME280;66401;42.016;21.454;2023-03-19T07:59:22;98934.69;;;14.30;33.74
62789;BME280;66401;42.016;21.454;2023-03-19T08:01:48;98933.13;;;14.82;33.02
62789;BME280;66401;42.016;21.454;2023-03-19T08:04:14;98941.63;;;14.71;33.00
62789;BME280;66401;42.016;21.454;2023-03-19T08:06:39;98922.25;;;14.79;32.33
62789;BME280;66401;42.016;21.454;2023-03-19T08:09:05;98938.31;;;14.36;33.36
62789;BME280;66401;42.016;21.454;2023-03-19T08:11:31;98941.88;;;14.09;34.97
62789;BME280;66401;42.016;21.454;2023-03-19T08:13:56;98939.47;;;14.07;35.11
62789;BME280;66401;42.016;21.454;2023-03-19T08:16:22;98942.50;;;14.11;33.66
62789;BME280;66401;42.016;21.454;2023-03-19T08:18:47;98938.59;;;14.68;34.67
62789;BME280;66401;42.016;21.454;2023-03-19T08:21:14;98928.25;;;15.19;31.82
62789;BME280;66401;42.016;21.454;2023-03-19T08:23:41;98932.59;;;15.52;32.24
62789;BME280;66401;42.016;21.454;2023-03-19T08:26:07;98928.16;;;16.42;30.14
62789;BME280;66401;42.016;21.454;2023-03-19T08:28:33;98922.38;;;15.95;31.08
62789;BME280;66401;42.016;21.454;2023-03-19T08:31:08;98916.88;;;16.59;30.65
62789;BME280;66401;42.016;21.454;2023-03-19T08:33:33;98921.06;;;16.11;31.13
62789;BME280;66401;42.016;21.454;2023-03-19T08:36:12;98915.72;;;15.28;32.96
62789;BME280;66401;42.016;21.454;2023-03-19T08:38:38;98919.06;;;16.06;30.59
62789;BME280;66401;42.016;21.454;2023-03-19T08:41:04;98920.22;;;14.94;33.60
62789;BME280;66401;42.016;21.454;2023-03-19T08:43:31;98915.78;;;14.88;32.68
62789;BME280;66401;42.016;21.454;2023-03-19T08:45:58;98911.91;;;15.17;32.41
62789;BME280;66401;42.016;21.454;2023-03-19T08:48:25;98911.13;;;14.57;34.57
62789;BME280;66401;42.016;21.454;2023-03-19T08:50:56;98917.00;;;14.79;33.86
62789;BME280;66401;42.016;21.454;2023-03-19T08:53:22;98913.38;;;13.72;35.15
62789;BME280;66401;42.016;21.454;2023-03-19T08:55:53;98911.31;;;14.42;35.13
62789;BME280;66401;42.016;21.454;2023-03-19T08:58:19;98903.28;;;13.63;37.00
62789;BME280;66401;42.016;21.454;2023-03-19T09:00:45;98898.75;;;14.04;36.11
62789;BME280;66401;42.016;21.454;2023-03-19T09:03:11;98899.16;;;14.08;37.48
62789;BME280;66401;42.016;21.454;2023-03-19T09:05:37;98891.13;;;14.10;37.28
62789;BME280;66401;42.016;21.454;2023-03-19T09:08:02;98884.63;;;13.99;36.24
62789;BME280;66401;42.016;21.454;2023-03-19T09:10:28;98881.38;;;13.70;37.05
62789;BME280;66401;42.016;21.454;2023-03-19T09:12:53;98887.00;;;13.74;38.28
62789;BME280;66401;42.016;21.454;2023-03-19T09:15:19;98888.56;;;12.93;40.23
62789;BME280;66401;42.016;21.454;2023-03-19T09:17:44;98878.22;;;12.78;39.24
62789;BME280;66401;42.016;21.454;2023-03-19T09:20:10;98878.47;;;12.55;41.29
62789;BME280;66401;42.016;21.454;2023-03-19T09:22:35;98881.19;;;12.68;39.94
62789;BME280;66401;42.016;21.454;2023-03-19T09:25:01;98884.75;;;12.88;41.15
62789;BME280;66401;42.016;21.454;2023-03-19T09:27:26;98863.19;;;12.30;40.22
62789;BME280;66401;42.016;21.454;2023-03-19T09:29:53;98876.31;;;12.16;40.39
62789;BME280;66401;42.016;21.454;2023-03-19T09:32:18;98863.09;;;12.17;41.30
62789;BME280;66401;42.016;21.454;2023-03-19T09:34:44;98866.16;;;12.49;39.86
62789;BME280;66401;42.016;21.454;2023-03-19T09:37:11;98867.78;;;12.50;40.47
62789;BME280;66401;42.016;21.454;2023-03-19T09:39:36;98860.88;;;12.70;40.07
62789;BME280;66401;42.016;21.454;2023-03-19T09:44:38;98872.94;;;12.99;37.83
62789;BME280;66401;42.016;21.454;2023-03-19T09:47:28;98861.47;;;13.00;37.39
62789;BME280;66401;42.016;21.454;2023-03-19T09:49:59;98859.63;;;13.29;39.87
62789;BME280;66401;42.016;21.454;2023-03-19T09:57:35;98846.75;;;13.88;39.24
62789;BME280;66401;42.016;21.454;2023-03-19T10:02:42;98844.16;;;14.01;39.07
62789;BME280;66401;42.016;21.454;2023-03-19T10:11:11;98836.63;;;15.17;36.99
62789;BME280;66401;42.016;21.454;2023-03-19T10:16:14;98827.47;;;17.99;30.30
62789;BME280;66401;42.016;21.454;2023-03-19T10:18:43;98834.25;;;20.26;26.59
62789;BME280;66401;42.016;21.454;2023-03-19T10:21:19;98806.47;;;22.26;24.11
62789;BME280;66401;42.016;21.454;2023-03-19T10:24:10;98823.44;;;23.04;21.95
62789;BME280;66401;42.016;21.454;2023-03-19T10:26:38;98817.00;;;24.70;20.74
62789;BME280;66401;42.016;21.454;2023-03-19T10:29:08;98808.44;;;24.93;20.98
62789;BME280;66401;42.016;21.454;2023-03-19T10:31:51;98792.38;;;26.02;19.11
62789;BME280;66401;42.016;21.454;2023-03-19T10:34:27;98786.97;;;27.75;17.79
62789;BME280;66401;42.016;21.454;2023-03-19T10:39:38;98781.94;;;28.52;17.46
62789;BME280;66401;42.016;21.454;2023-03-19T10:47:55;98761.22;;;25.98;18.23
62789;BME280;66401;42.016;21.454;2023-03-19T10:50:28;98758.41;;;27.14;17.12
62789;BME280;66401;42.016;21.454;2023-03-19T10:53:05;98756.78;;;27.88;17.10
62789;BME280;66401;42.016;21.454;2023-03-19T10:55:31;98754.16;;;28.48;16.55
62789;BME280;66401;42.016;21.454;2023-03-19T10:58:13;98753.72;;;27.00;17.97
62789;BME280;66401;42.016;21.454;2023-03-19T11:00:44;98733.38;;;26.04;18.57
62789;BME280;66401;42.016;21.454;2023-03-19T11:03:30;98742.41;;;27.27;17.36
62789;BME280;66401;42.016;21.454;2023-03-19T11:06:26;98729.09;;;25.34;18.06
62789;BME280;66401;42.016;21.454;2023-03-19T11:11:44;98729.13;;;27.03;17.49
62789;BME280;66401;42.016;21.454;2023-03-19T11:17:04;98713.44;;;25.62;17.91
62789;BME280;66401;42.016;21.454;2023-03-19T11:19:34;98705.38;;;25.33;18.10
62789;BME280;66401;42.016;21.454;2023-03-19T11:24:33;98696.53;;;26.06;18.09
62789;BME280;66401;42.016;21.454;2023-03-19T11:27:00;98689.09;;;25.74;18.07
62789;BME280;66401;42.016;21.454;2023-03-19T11:29:28;98682.69;;;25.35;18.67
62789;BME280;66401;42.016;21.454;2023-03-19T11:32:15;98675.31;;;26.43;18.27
62789;BME280;66401;42.016;21.454;2023-03-19T11:40:08;98667.38;;;22.74;22.06
62789;BME280;66401;42.016;21.454;2023-03-19T11:50:39;98645.72;;;21.24;23.47
62789;BME280;66401;42.016;21.454;2023-03-19T11:53:23;98631.97;;;21.59;25.01
62789;BME280;66401;42.016;21.454;2023-03-19T11:56:13;98632.03;;;20.78;25.05
62789;BME280;66401;42.016;21.454;2023-03-19T12:18:35;98591.97;;;18.86;29.16
62789;BME280;66401;42.016;21.454;2023-03-19T12:21:17;98591.59;;;18.25;26.66
62789;BME280;66401;42.016;21.454;2023-03-19T12:32:31;98573.06;;;17.38;27.64
62789;BME280;66401;42.016;21.454;2023-03-19T12:35:07;98573.25;;;17.13;26.78
62789;BME280;66401;42.016;21.454;2023-03-19T12:37:41;98580.50;;;17.41;27.06
62789;BME280;66401;42.016;21.454;2023-03-19T12:43:07;98568.50;;;17.57;29.18
62789;BME280;66401;42.016;21.454;2023-03-19T12:45:45;98567.44;;;17.46;28.39
62789;BME280;66401;42.016;21.454;2023-03-19T12:50:47;98559.22;;;17.43;27.78
62789;BME280;66401;42.016;21.454;2023-03-19T12:53:48;98556.91;;;17.35;28.58
62789;BME280;66401;42.016;21.454;2023-03-19T13:01:38;98535.06;;;17.46;27.56
62789;BME280;66401;42.016;21.454;2023-03-19T13:06:46;98538.16;;;17.31;28.78
62789;BME280;66401;42.016;21.454;2023-03-19T13:09:34;98531.28;;;17.30;27.25
62789;BME280;66401;42.016;21.454;2023-03-19T13:12:10;98523.06;;;17.38;27.69
62789;BME280;66401;42.016;21.454;2023-03-19T13:15:02;98532.28;;;16.64;26.76
62789;BME280;66401;42.016;21.454;2023-03-19T13:20:21;98526.34;;;17.10;28.91
62789;BME280;66401;42.016;21.454;2023-03-19T13:22:55;98526.69;;;17.14;28.75
62789;BME280;66401;42.016;21.454;2023-03-19T13:25:28;98522.31;;;17.08;28.27
62789;BME280;66401;42.016;21.454;2023-03-19T13:27:55;98518.44;;;16.99;27.21
62789;BME280;66401;42.016;21.454;2023-03-19T13:30:22;98511.78;;;16.84;28.03
62789;BME280;66401;42.016;21.454;2023-03-19T13:33:03;98511.69;;;17.03;27.00
62789;BME280;66401;42.016;21.454;2023-03-19T13:38:07;98507.47;;;17.02;28.43
62789;BME280;66401;42.016;21.454;2023-03-19T13:40:45;98505.16;;;17.17;28.58
62789;BME280;66401;42.016;21.454;2023-03-19T13:43:41;98499.56;;;17.02;28.51
62789;BME280;66401;42.016;21.454;2023-03-19T13:54:16;98485.03;;;17.11;28.14
62789;BME280;66401;42.016;21.454;2023-03-19T14:07:25;98463.63;;;17.07;26.77
62789;BME280;66401;42.016;21.454;2023-03-19T14:12:36;98463.63;;;17.07;26.69
62789;BME280;66401;42.016;21.454;2023-03-19T14:15:14;98476.34;;;16.99;25.71
62789;BME280;66401;42.016;21.454;2023-03-19T14:25:20;98457.09;;;16.86;26.39
62789;BME280;66401;42.016;21.454;2023-03-19T14:27:50;98462.34;;;16.86;25.19
62789;BME280;66401;42.016;21.454;2023-03-19T14:30:39;98451.16;;;16.79;24.72
62789;BME280;66401;42.016;21.454;2023-03-19T14:33:17;98450.53;;;16.66;23.82
62789;BME280;66401;42.016;21.454;2023-03-19T14:35:45;98451.91;;;16.68;24.93
62789;BME280;66401;42.016;21.454;2023-03-19T14:38:30;98451.16;;;16.79;24.72
62789;BME280;66401;42.016;21.454;2023-03-19T14:40:59;98449.09;;;16.81;24.56
62789;BME280;66401;42.016;21.454;2023-03-19T14:54:37;98436.47;;;16.60;26.48
62789;BME280;66401;42.016;21.454;2023-03-19T14:57:11;98435.19;;;16.51;26.90
62789;BME280;66401;42.016;21.454;2023-03-19T14:59:40;98426.03;;;16.53;27.54
62789;BME280;66401;42.016;21.454;2023-03-19T15:02:19;98423.97;;;16.44;26.51
62789;BME280;66401;42.016;21.454;2023-03-19T15:04:46;98433.19;;;16.35;26.84
62789;BME280;66401;42.016;21.454;2023-03-19T15:07:31;98432.63;;;16.33;25.81
62789;BME280;66401;42.016;21.454;2023-03-19T15:10:00;98425.63;;;16.26;25.09
62789;BME280;66401;42.016;21.454;2023-03-19T15:13:24;98432.47;;;16.27;24.73
62789;BME280;66401;42.016;21.454;2023-03-19T15:18:14;98429.59;;;16.17;23.59
62789;BME280;66401;42.016;21.454;2023-03-19T15:20:50;98427.03;;;16.11;24.69
62789;BME280;66401;42.016;21.454;2023-03-19T15:23:19;98428.69;;;16.12;23.11
62789;BME280;66401;42.016;21.454;2023-03-19T15:26:00;98423.28;;;16.07;21.61
62789;BME280;66401;42.016;21.454;2023-03-19T15:28:31;98423.00;;;15.96;20.53